Lodge Corner, Arkansas
Current Conditions -  °F | °C
As of 9:15 AM on Monday 24 Nov 2014 (Local Time) from KSGT Reporting Station
Clear Clear  
Wind Chill: 50°   Ceiling: Unl
Heat Index: 50°   Visibility: 10mi
Dew Point: 37°   Wind: 14mph
Humidity: 62%   Direction: 280°W
Pressure: 29.92"   Gusts: NA
Location:  34.3615°N, 91.5213°W
Report Text: KSGT 241515Z AUTO 28012KT 10SM CLR 10/03 A2992 RMK AO1
Loading
Personal Weather Stations






























Interactive Weather Map New forecast layout! Learn more

10-Day Weather Forecast

Advertisements
Track Severe Weather on mobile